createdAt,value
2023-03-27T00:03:06.234Z,13.00
2023-03-27T00:08:09.463Z,19.20
2023-03-27T00:13:12.069Z,17.30
2023-03-27T00:18:15.720Z,23.90
2023-03-27T00:23:20.098Z,23.40
2023-03-27T00:28:22.372Z,29.90
2023-03-27T00:33:25.995Z,28.00
2023-03-27T00:38:29.607Z,26.60
2023-03-27T00:43:37.231Z,21.40
2023-03-27T00:48:39.767Z,22.00
2023-03-27T00:53:54.140Z,21.60
2023-03-27T00:59:08.388Z,22.80
2023-03-27T01:04:11.012Z,21.60
2023-03-27T01:09:20.341Z,21.90
2023-03-27T01:14:47.936Z,24.60
2023-03-27T01:20:26.104Z,25.90
2023-03-27T01:26:00.728Z,22.90
2023-03-27T01:31:52.108Z,18.40
2023-03-27T01:37:30.252Z,16.10
2023-03-27T01:43:11.766Z,19.00
2023-03-27T01:48:25.717Z,13.80
2023-03-27T01:53:46.707Z,15.00
2023-03-27T01:58:55.624Z,14.90
2023-03-27T02:04:03.071Z,13.50
2023-03-27T02:09:23.246Z,11.00
2023-03-27T02:14:34.809Z,13.50
2023-03-27T02:19:56.234Z,15.90
2023-03-27T02:30:17.354Z,11.60
2023-03-27T02:35:29.518Z,16.10
2023-03-27T02:40:47.597Z,12.10
2023-03-27T02:46:34.185Z,14.40
2023-03-27T02:51:48.046Z,14.20
2023-03-27T02:57:01.648Z,15.80
2023-03-27T03:02:25.778Z,13.10
2023-03-27T03:07:43.608Z,12.30
2023-03-27T03:12:57.005Z,12.90
2023-03-27T03:18:05.653Z,10.80
2023-03-27T03:23:09.174Z,11.60
2023-03-27T03:28:11.535Z,12.70
2023-03-27T03:33:19.645Z,10.20
2023-03-27T03:38:38.904Z,11.00
2023-03-27T03:43:48.035Z,8.10
2023-03-27T03:48:53.012Z,8.90
2023-03-27T03:59:18.837Z,10.10
2023-03-27T04:04:43.768Z,10.40
2023-03-27T04:15:26.424Z,11.70
2023-03-27T04:21:14.717Z,12.60
2023-03-27T04:26:17.892Z,14.70
2023-03-27T04:31:49.504Z,13.90
2023-03-27T04:37:23.408Z,14.60
2023-03-27T04:42:45.656Z,12.10
2023-03-27T04:48:04.203Z,13.90
2023-03-27T04:53:20.572Z,13.20
2023-03-27T04:58:37.303Z,14.20
2023-03-27T05:03:49.385Z,15.90
2023-03-27T05:09:01.533Z,13.00
2023-03-27T05:14:10.120Z,11.80
2023-03-27T05:19:13.328Z,12.60
2023-03-27T05:24:20.409Z,14.10
2023-03-27T05:29:24.008Z,14.10
2023-03-27T05:34:34.750Z,14.00
2023-03-27T05:39:41.398Z,14.60
2023-03-27T05:44:56.660Z,15.80
2023-03-27T05:50:10.139Z,15.00
2023-03-27T05:55:23.665Z,15.40
2023-03-27T06:00:42.108Z,20.50
2023-03-27T06:06:01.094Z,20.40
2023-03-27T06:11:15.278Z,16.20
2023-03-27T06:16:35.922Z,16.90
2023-03-27T06:21:47.270Z,16.00
2023-03-27T06:26:59.452Z,14.30
2023-03-27T06:32:27.685Z,15.50
2023-03-27T06:37:37.062Z,13.50
2023-03-27T06:42:57.411Z,12.20
2023-03-27T06:48:34.867Z,12.30
2023-03-27T06:53:57.082Z,11.20
2023-03-27T06:59:03.116Z,13.70
2023-03-27T07:04:16.763Z,16.30
2023-03-27T07:10:02.352Z,14.40
2023-03-27T07:15:27.883Z,17.40
2023-03-27T07:21:16.737Z,14.20
2023-03-27T07:26:29.674Z,17.00
2023-03-27T07:32:09.279Z,14.70
2023-03-27T07:37:34.241Z,14.10
2023-03-27T07:43:48.452Z,11.70
2023-03-27T07:49:39.460Z,12.40
2023-03-27T07:55:18.298Z,15.20
2023-03-27T08:01:21.985Z,19.30
2023-03-27T08:07:22.041Z,21.80
2023-03-27T08:13:27.184Z,22.00
2023-03-27T08:19:01.132Z,21.00
2023-03-27T08:24:36.497Z,18.20
2023-03-27T08:30:41.444Z,12.20
2023-03-27T08:36:20.302Z,14.70
2023-03-27T08:41:55.022Z,12.70
2023-03-27T08:47:25.832Z,13.20
2023-03-27T08:52:58.236Z,17.00
2023-03-27T08:58:24.315Z,21.00
2023-03-27T09:03:52.255Z,15.20
2023-03-27T09:09:55.542Z,9.10
2023-03-27T09:16:04.445Z,7.90
2023-03-27T09:21:45.040Z,7.80
2023-03-27T09:27:06.349Z,5.60
2023-03-27T09:33:17.502Z,3.20
2023-03-27T09:38:45.469Z,2.90
2023-03-27T09:44:11.418Z,5.20
2023-03-27T09:49:29.936Z,2.80
2023-03-27T09:55:02.937Z,3.60
2023-03-27T10:00:33.516Z,4.80
2023-03-27T10:05:39.294Z,4.40
2023-03-27T10:10:56.073Z,4.00
2023-03-27T10:16:40.043Z,3.70
2023-03-27T10:21:47.814Z,4.40
2023-03-27T10:27:14.064Z,6.20
2023-03-27T10:32:50.230Z,5.30
2023-03-27T10:38:22.464Z,5.20
2023-03-27T10:43:46.354Z,4.50
2023-03-27T10:50:07.834Z,7.30
2023-03-27T10:55:36.888Z,5.00
2023-03-27T11:01:12.040Z,6.70
2023-03-27T11:12:05.071Z,6.40
2023-03-27T11:17:24.007Z,5.30
2023-03-27T11:23:24.664Z,4.60
2023-03-27T11:29:04.140Z,5.60
2023-03-27T11:34:28.780Z,5.30
2023-03-27T11:40:12.744Z,5.90
2023-03-27T11:45:21.389Z,4.70
2023-03-27T11:50:53.202Z,9.20
2023-03-27T11:56:37.424Z,14.40
2023-03-27T12:03:04.122Z,6.60
2023-03-27T12:08:51.520Z,19.30
2023-03-27T12:14:50.661Z,5.00
2023-03-27T12:20:41.639Z,2.90
2023-03-27T12:26:50.516Z,3.20
2023-03-27T12:32:44.215Z,2.40
2023-03-27T12:37:53.796Z,3.30
2023-03-27T12:43:14.793Z,2.20
2023-03-27T12:49:17.775Z,3.00
2023-03-27T12:55:52.306Z,2.90
2023-03-27T13:01:51.724Z,4.40
2023-03-27T13:07:52.752Z,4.90
2023-03-27T13:14:04.903Z,4.50
2023-03-27T13:20:06.458Z,3.00
2023-03-27T13:26:34.275Z,2.90
2023-03-27T13:32:42.583Z,2.80
2023-03-27T13:38:22.344Z,2.60
2023-03-27T13:43:54.115Z,4.40
2023-03-27T13:50:17.222Z,3.00
2023-03-27T13:56:45.694Z,3.80
2023-03-27T14:02:27.230Z,2.50
2023-03-27T14:08:15.637Z,3.40
2023-03-27T14:14:19.907Z,3.90
2023-03-27T14:19:57.629Z,2.20
2023-03-27T14:25:42.272Z,2.90
2023-03-27T14:31:04.683Z,3.60
2023-03-27T14:36:34.533Z,2.30
2023-03-27T14:42:01.532Z,2.60
2023-03-27T14:47:12.116Z,2.50
2023-03-27T14:52:32.736Z,1.80
2023-03-27T14:58:11.039Z,3.40
2023-03-27T15:03:21.674Z,2.70
2023-03-27T15:08:39.369Z,1.70
2023-03-27T15:14:30.254Z,2.30
2023-03-27T15:19:45.738Z,2.20
2023-03-27T15:25:02.560Z,3.00
2023-03-27T15:30:23.681Z,2.30
2023-03-27T15:35:38.424Z,2.60
2023-03-27T15:40:58.541Z,3.60
2023-03-27T15:46:24.714Z,2.60
2023-03-27T15:51:35.252Z,2.70
2023-03-27T15:56:47.363Z,1.70
2023-03-27T16:02:11.612Z,2.20
2023-03-27T16:07:49.797Z,2.60
2023-03-27T16:13:35.390Z,3.20
2023-03-27T16:18:45.004Z,3.00
2023-03-27T16:23:49.910Z,2.80
2023-03-27T16:28:57.780Z,2.50
2023-03-27T16:34:00.212Z,1.90
2023-03-27T16:39:04.216Z,1.70
2023-03-27T16:44:09.599Z,3.00
2023-03-27T16:49:13.193Z,3.30
2023-03-27T16:54:15.919Z,1.90
2023-03-27T16:59:23.106Z,1.90
2023-03-27T17:04:25.873Z,2.30
2023-03-27T17:09:32.352Z,3.10
2023-03-27T17:14:40.589Z,4.20
2023-03-27T17:19:45.912Z,3.70
2023-03-27T17:24:56.641Z,5.70
2023-03-27T17:30:00.379Z,3.00
2023-03-27T17:35:05.307Z,3.30
2023-03-27T17:40:15.883Z,2.90
2023-03-27T17:45:18.502Z,4.30
2023-03-27T17:50:20.684Z,4.40
2023-03-27T17:55:23.777Z,5.60
2023-03-27T18:00:26.146Z,6.10
2023-03-27T18:05:29.143Z,5.70
2023-03-27T18:10:35.320Z,6.20
2023-03-27T18:15:40.871Z,4.30
2023-03-27T18:20:51.071Z,5.70
2023-03-27T18:25:53.620Z,4.70
2023-03-27T18:31:08.247Z,5.70
2023-03-27T18:36:15.430Z,5.20
2023-03-27T18:41:22.237Z,4.80
2023-03-27T18:46:28.272Z,5.10
2023-03-27T18:51:45.627Z,4.60
2023-03-27T18:56:48.851Z,5.20
2023-03-27T19:01:51.437Z,5.70
2023-03-27T19:06:59.516Z,5.00
2023-03-27T19:12:02.579Z,5.90
2023-03-27T19:17:33.178Z,5.70
2023-03-27T19:22:53.519Z,5.50
2023-03-27T19:28:07.279Z,6.00
2023-03-27T19:33:14.622Z,6.30
2023-03-27T19:38:17.297Z,4.70
2023-03-27T19:43:21.604Z,5.90
2023-03-27T19:48:25.232Z,6.20
2023-03-27T19:53:28.617Z,3.80
2023-03-27T19:58:31.490Z,4.50
2023-03-27T20:03:38.607Z,5.20
2023-03-27T20:08:42.359Z,7.10
2023-03-27T20:13:56.888Z,6.10
2023-03-27T20:19:05.315Z,4.50
2023-03-27T20:24:10.508Z,6.40
2023-03-27T20:29:18.769Z,6.70
2023-03-27T20:34:22.509Z,6.30
2023-03-27T20:39:28.622Z,6.80
2023-03-27T20:44:36.554Z,6.70
2023-03-27T20:49:43.133Z,7.20
2023-03-27T20:54:48.135Z,9.90
2023-03-27T20:59:59.086Z,10.00
2023-03-27T21:05:02.699Z,8.50
2023-03-27T21:10:11.200Z,9.20
2023-03-27T21:15:15.905Z,9.60
2023-03-27T21:20:19.075Z,7.20
2023-03-27T21:25:22.348Z,6.70
2023-03-27T21:30:46.198Z,7.80
2023-03-27T21:36:12.884Z,9.70
2023-03-27T21:41:21.799Z,9.40
2023-03-27T21:46:29.115Z,11.90
2023-03-27T21:51:37.521Z,14.50
2023-03-27T21:56:40.046Z,15.00
2023-03-27T22:01:44.809Z,15.00
2023-03-27T22:06:51.894Z,17.10
2023-03-27T22:12:01.445Z,13.80
2023-03-27T22:17:04.095Z,14.20
2023-03-27T22:22:06.442Z,16.20
2023-03-27T22:27:08.943Z,14.60
2023-03-27T22:32:11.774Z,8.50
2023-03-27T22:37:25.963Z,9.60
2023-03-27T22:42:32.397Z,10.50
2023-03-27T22:47:45.834Z,9.30
2023-03-27T22:52:48.610Z,10.40
2023-03-27T22:57:51.378Z,13.70
2023-03-27T23:02:57.785Z,14.20
2023-03-27T23:08:03.431Z,15.30
2023-03-27T23:13:10.719Z,15.90
2023-03-27T23:18:12.719Z,12.90
2023-03-27T23:23:19.327Z,15.60
2023-03-27T23:28:23.162Z,12.60
2023-03-27T23:33:26.263Z,12.50
2023-03-27T23:38:45.453Z,16.10
2023-03-27T23:43:51.405Z,12.80
2023-03-27T23:49:06.261Z,16.30
2023-03-27T23:54:32.981Z,15.30
2023-03-27T23:59:38.158Z,14.10
